Time;durP1;ratioP1;P1;durP2;ratioP2;P2;SDS_P1;SDS_P2;PMS_P1;PMS_P2;Temp;Humidity;BMP_temperature;BMP_pressure;BME280_temperature;BME280_humidity;BME280_pressure;Samples;Min_cycle;Max_cycle;Signal;HPM_P1;HPM_P2
2022/06/12 00:00:51;;;;;;;6.12;4.08;;;;;;;18.31;56.92;99933.18;1661966;86;20973;-69
2022/06/12 00:03:21;;;;;;;6.12;4.50;;;;;;;18.27;57.17;99943.93;1658849;86;21099;-70
2022/06/12 00:05:51;;;;;;;7.50;4.15;;;;;;;18.25;57.17;99937.11;1655170;86;21032;-70
2022/06/12 00:08:18;;;;;;;5.75;4.20;;;;;;;18.19;57.21;99937.31;1649131;86;22030;-70
2022/06/12 00:10:47;;;;;;;8.58;4.53;;;;;;;18.17;57.27;99935.34;1662056;86;21528;-69
2022/06/12 00:13:15;;;;;;;6.83;4.28;;;;;;;18.11;57.35;99932.55;1661091;86;21040;-69
2022/06/12 00:15:42;;;;;;;8.28;4.75;;;;;;;18.06;57.66;99936.29;1661414;86;21056;-69
2022/06/12 00:18:11;;;;;;;4.97;4.37;;;;;;;18.04;57.72;99932.44;1645437;86;21028;-69
2022/06/12 00:20:38;;;;;;;8.15;4.50;;;;;;;18.03;57.81;99930.27;1659900;86;22436;-69
2022/06/12 00:23:08;;;;;;;7.40;4.85;;;;;;;18.02;57.72;99925.11;1661989;86;21508;-69
2022/06/12 00:25:36;;;;;;;5.53;4.40;;;;;;;17.96;57.70;99921.84;1641434;86;21079;-70
2022/06/12 00:28:05;;;;;;;6.75;4.53;;;;;;;17.90;57.83;99923.38;1644724;86;21108;-70
2022/06/12 00:30:34;;;;;;;8.85;4.47;;;;;;;17.89;57.86;99916.88;1661592;86;21107;-69
2022/06/12 00:33:00;;;;;;;7.22;4.37;;;;;;;17.88;57.92;99917.91;1661511;86;22467;-69
2022/06/12 00:35:33;;;;;;;6.97;4.70;;;;;;;17.83;57.95;99916.26;1640146;86;21434;-69
2022/06/12 00:38:00;;;;;;;8.35;4.50;;;;;;;17.81;57.97;99919.63;1652507;84;21396;-69
2022/06/12 00:40:27;;;;;;;6.42;4.55;;;;;;;17.79;57.99;99916.30;1641589;86;21053;-69
2022/06/12 00:42:58;;;;;;;9.63;4.45;;;;;;;17.77;58.16;99919.16;1633167;87;21088;-69
2022/06/12 00:45:48;;;;;;;6.25;4.20;;;;;;;17.77;58.25;99916.48;1654834;86;21978;-70
2022/06/12 00:48:24;;;;;;;5.00;4.12;;;;;;;17.77;58.42;99916.99;1656127;86;21005;-69
2022/06/12 00:51:15;;;;;;;7.05;4.20;;;;;;;17.78;58.51;99917.31;1661790;86;21101;-69
2022/06/12 00:53:49;;;;;;;5.55;4.30;;;;;;;17.78;58.45;99911.47;1656519;84;21053;-69
2022/06/12 00:56:21;;;;;;;5.17;4.33;;;;;;;17.72;58.34;99907.66;1661040;86;21462;-69
2022/06/12 00:59:02;;;;;;;7.08;4.37;;;;;;;17.67;58.30;99903.85;1662230;86;22262;-69
2022/06/12 01:01:37;;;;;;;6.87;4.67;;;;;;;17.64;58.28;99914.87;1633407;87;21028;-69
2022/06/12 01:06:52;;;;;;;5.67;4.40;;;;;;;17.60;58.68;99913.58;1659431;84;21550;-68
2022/06/12 01:09:24;;;;;;;7.62;4.67;;;;;;;17.58;58.73;99911.09;1660545;84;20970;-72
2022/06/12 01:11:53;;;;;;;6.05;4.33;;;;;;;17.57;58.77;99913.95;1657071;86;22031;-69
2022/06/12 01:14:25;;;;;;;7.67;4.08;;;;;;;17.54;58.81;99906.27;1662088;86;21038;-69
2022/06/12 01:16:53;;;;;;;8.45;4.25;;;;;;;17.52;58.81;99906.95;1658200;86;20997;-70
2022/06/12 01:19:34;;;;;;;9.33;4.50;;;;;;;17.49;58.88;99904.14;1657615;86;20986;-69
2022/06/12 01:22:44;;;;;;;6.15;3.77;;;;;;;17.47;58.86;99904.84;1668682;84;21363;-69
2022/06/12 01:25:37;;;;;;;5.75;3.60;;;;;;;17.44;58.72;99906.00;1666278;84;21918;-68
2022/06/12 01:28:29;;;;;;;5.42;2.85;;;;;;;17.52;58.31;99903.78;1676654;84;21914;-69
2022/06/12 01:31:33;;;;;;;7.47;3.67;;;;;;;17.61;58.03;99900.05;1656914;86;21045;-69
2022/06/12 01:34:10;;;;;;;8.27;3.70;;;;;;;17.69;57.62;99897.82;1608005;86;20992;-68
2022/06/12 01:36:48;;;;;;;5.62;3.45;;;;;;;17.73;57.42;99899.14;1657240;85;21021;-69
2022/06/12 01:39:40;;;;;;;8.18;3.45;;;;;;;17.78;57.12;99896.77;1655688;86;21744;-68
2022/06/12 01:42:46;;;;;;;6.12;3.35;;;;;;;17.82;57.07;99899.40;1657765;84;21072;-68
2022/06/12 01:45:53;;;;;;;8.25;3.37;;;;;;;17.79;57.04;99894.94;1627975;86;21123;-68
2022/06/12 01:48:52;;;;;;;7.87;3.30;;;;;;;17.75;57.00;99897.11;1630553;88;20987;-68
2022/06/12 01:51:50;;;;;;;5.45;3.20;;;;;;;17.78;56.54;99899.95;1577760;91;21005;-69
2022/06/12 01:54:38;;;;;;;6.60;3.40;;;;;;;17.91;56.05;99892.15;1622504;88;21842;-68
2022/06/12 01:57:16;;;;;;;6.60;3.45;;;;;;;18.01;55.92;99890.88;1611987;86;21499;-69
2022/06/12 01:59:54;;;;;;;6.05;3.40;;;;;;;18.05;55.99;99889.17;1630029;88;21070;-68
2022/06/12 02:02:35;;;;;;;5.12;3.27;;;;;;;18.02;56.11;99889.86;1629008;87;21092;-69
2022/06/12 02:05:31;;;;;;;6.95;3.60;;;;;;;18.01;56.13;99887.37;1655614;86;21435;-68
2022/06/12 02:08:23;;;;;;;5.62;3.37;;;;;;;17.99;56.19;99893.41;1655116;86;21548;-68
2022/06/12 02:13:10;;;;;;;5.97;3.30;;;;;;;18.00;56.22;99895.07;1656721;84;20965;-69
2022/06/12 02:13:30;;;;;;;5.12;3.60;;;;;;;17.98;56.28;99892.59;1654999;86;21012;-69
2022/06/12 02:16:06;;;;;;;5.05;3.35;;;;;;;17.97;56.38;99894.94;1656816;86;20973;-69
2022/06/12 02:18:38;;;;;;;5.65;3.70;;;;;;;17.97;56.46;99894.94;1613790;87;21081;-68
2022/06/12 02:21:22;;;;;;;4.78;3.58;;;;;;;17.98;56.57;99895.77;1658588;86;22545;-68
2022/06/12 02:24:03;;;;;;;4.92;3.47;;;;;;;17.97;56.73;99894.11;1656083;84;21120;-68
2022/06/12 02:27:04;;;;;;;6.28;3.40;;;;;;;17.98;56.74;99899.27;1640695;86;20988;-68
2022/06/12 02:29:38;;;;;;;5.47;3.45;;;;;;;17.99;56.93;99893.41;1657553;86;21057;-68
2022/06/12 02:32:34;;;;;;;5.53;3.50;;;;;;;18.00;57.10;99888.39;1645667;84;20997;-69
2022/06/12 02:35:15;;;;;;;7.33;3.47;;;;;;;17.99;57.25;99895.58;1634742;86;21858;-69
2022/06/12 02:37:46;;;;;;;8.20;3.60;;;;;;;18.00;57.45;99888.39;1637001;86;21511;-69
2022/06/12 02:40:20;;;;;;;6.42;3.50;;;;;;;18.01;57.48;99888.20;1675929;84;21527;-68
2022/06/12 02:42:47;;;;;;;6.05;3.40;;;;;;;18.02;57.60;99887.19;1675760;84;21086;-69
2022/06/12 02:45:22;;;;;;;5.67;3.42;;;;;;;18.05;57.62;99888.69;1647112;84;21053;-69
2022/06/12 02:47:49;;;;;;;8.40;3.60;;;;;;;18.05;57.76;99889.17;1635287;86;22628;-70
2022/06/12 02:50:17;;;;;;;7.17;3.58;;;;;;;18.08;57.79;99889.66;1652490;86;21135;-69
2022/06/12 02:53:04;;;;;;;8.03;3.80;;;;;;;18.11;57.90;99891.95;1650255;84;21060;-69
2022/06/12 02:55:44;;;;;;;6.92;3.67;;;;;;;18.13;57.99;99892.59;1652760;86;20977;-69
2022/06/12 02:58:21;;;;;;;5.58;3.65;;;;;;;18.14;58.06;99890.23;1659879;85;20968;-69
2022/06/12 03:00:59;;;;;;;8.60;3.47;;;;;;;18.14;58.13;99888.91;1687232;85;21931;-69
2022/06/12 03:03:46;;;;;;;6.87;3.70;;;;;;;18.18;58.17;99890.73;1662524;85;21072;-69
2022/06/12 03:06:12;;;;;;;5.67;3.58;;;;;;;18.18;58.25;99896.08;1652885;85;21395;-69
2022/06/12 03:08:50;;;;;;;5.25;3.65;;;;;;;18.20;58.31;99892.20;1652685;85;21710;-70
2022/06/12 03:11:30;;;;;;;5.50;3.30;;;;;;;18.23;58.41;99892.33;1679154;85;21025;-69
2022/06/12 03:13:57;;;;;;;4.17;3.40;;;;;;;18.26;58.54;99897.33;1685931;85;21848;-69
2022/06/12 03:16:29;;;;;;;6.60;3.60;;;;;;;18.30;58.68;99895.94;1642899;86;21060;-69
2022/06/12 03:19:00;;;;;;;6.78;3.75;;;;;;;18.34;58.57;99899.09;1654013;85;21036;-71
2022/06/12 03:21:39;;;;;;;6.45;3.52;;;;;;;18.42;58.53;99902.99;1681108;85;21013;-68
2022/06/12 03:24:53;;;;;;;6.17;4.10;;;;;;;18.47;58.48;99897.94;1688505;85;21076;-69
2022/06/12 03:27:27;;;;;;;6.35;4.33;;;;;;;18.53;58.56;99899.88;1630420;86;21021;-69
2022/06/12 03:30:13;;;;;;;9.20;4.05;;;;;;;18.59;58.66;99898.62;1618402;88;21073;-69
2022/06/12 03:33:12;;;;;;;8.40;4.37;;;;;;;18.66;58.68;99899.25;1653638;85;21019;-69
2022/06/12 03:35:54;;;;;;;7.45;4.20;;;;;;;18.73;58.63;99897.50;1651272;85;21001;-70
2022/06/12 03:38:56;;;;;;;8.18;4.12;;;;;;;18.81;58.58;99900.88;1625067;86;21003;-72
2022/06/12 03:41:50;;;;;;;7.05;4.40;;;;;;;18.90;58.40;99892.75;1648536;85;22456;-69
2022/06/12 03:44:29;;;;;;;;;;;;;;;19.03;58.25;99903.13;1655334;86;21029;-69
2022/06/12 03:47:16;;;;;;;7.87;4.20;;;;;;;19.13;58.27;99898.30;1654097;85;20158;-69
2022/06/12 03:49:57;;;;;;;12.05;4.65;;;;;;;19.24;58.09;99898.31;1651669;86;21005;-69
2022/06/12 03:52:32;;;;;;;7.47;4.40;;;;;;;19.38;58.10;99891.23;1647498;86;21037;-70
2022/06/12 03:55:14;;;;;;;11.60;4.30;;;;;;;19.50;58.23;99899.11;1672858;84;21766;-69
2022/06/12 03:57:53;;;;;;;8.58;4.10;;;;;;;19.59;58.20;99893.98;1656341;86;21080;-69
2022/06/12 04:00:40;;;;;;;8.65;4.65;;;;;;;19.67;58.06;99892.99;1635633;84;20994;-69
2022/06/12 04:03:11;;;;;;;8.33;4.25;;;;;;;19.76;58.09;99893.18;1647338;86;21057;-68
2022/06/12 04:05:43;;;;;;;6.37;4.65;;;;;;;19.87;57.97;99896.67;1657674;86;21067;-69
2022/06/12 04:08:34;;;;;;;9.30;5.03;;;;;;;19.96;57.95;99897.36;1681873;84;21634;-68
2022/06/12 04:11:00;;;;;;;7.40;4.75;;;;;;;20.03;57.72;99892.89;1671711;84;20978;-68
2022/06/12 04:13:27;;;;;;;7.10;4.72;;;;;;;20.11;57.70;99895.43;1657222;86;21373;-69
2022/06/12 04:16:07;;;;;;;10.10;4.62;;;;;;;20.19;57.75;99901.16;1630811;87;21025;-69
2022/06/12 04:18:34;;;;;;;11.80;4.80;;;;;;;20.24;57.99;99897.36;1635924;86;21076;-69
2022/06/12 04:21:06;;;;;;;7.45;4.85;;;;;;;20.28;57.96;99901.33;1652460;84;21933;-69
2022/06/12 04:23:50;;;;;;;10.68;4.75;;;;;;;20.31;58.04;99904.95;1667020;86;21048;-69
2022/06/12 04:26:31;;;;;;;11.15;5.30;;;;;;;20.36;58.08;99900.33;1657786;84;25257;-69
2022/06/12 04:29:15;;;;;;;11.10;5.47;;;;;;;20.40;58.13;99905.12;1658223;86;20967;-69
2022/06/12 04:31:45;;;;;;;10.68;5.15;;;;;;;20.46;58.28;99904.38;1658229;86;21037;-69
2022/06/12 04:34:30;;;;;;;11.28;5.53;;;;;;;20.54;58.50;99901.50;1656430;86;21967;-69
2022/06/12 04:37:04;;;;;;;8.78;5.47;;;;;;;20.62;58.33;99899.70;1655471;86;21061;-69
2022/06/12 04:39:33;;;;;;;11.15;5.60;;;;;;;20.73;57.58;99898.61;1676152;84;21478;-69
2022/06/12 04:42:00;;;;;;;9.80;5.87;;;;;;;20.88;56.92;99903.03;1666812;84;20998;-71
2022/06/12 04:44:26;;;;;;;11.43;6.60;;;;;;;21.03;55.76;99898.32;1640424;86;21044;-69
2022/06/12 04:46:56;;;;;;;12.65;5.90;;;;;;;21.21;53.49;99892.39;1659079;84;22379;-70
2022/06/12 04:49:25;;;;;;;8.68;5.78;;;;;;;21.38;52.03;99888.34;1626036;85;21033;-69
2022/06/12 04:51:55;;;;;;;8.30;5.65;;;;;;;21.58;49.99;99887.84;1604861;89;21009;-69
2022/06/12 04:54:23;;;;;;;10.13;5.90;;;;;;;21.82;49.46;99892.33;1628489;87;21538;-69
2022/06/12 04:56:50;;;;;;;15.25;5.85;;;;;;;22.05;48.91;99890.55;1618322;87;21031;-69
2022/06/12 04:59:17;;;;;;;12.43;6.45;;;;;;;22.25;47.85;99896.25;1611809;88;21754;-69
2022/06/12 05:01:44;;;;;;;11.53;5.67;;;;;;;22.44;46.20;99895.08;1616301;88;21089;-69
2022/06/12 05:04:11;;;;;;;12.43;6.40;;;;;;;22.62;45.49;99893.89;1638472;86;20997;-69
2022/06/12 05:06:38;;;;;;;11.00;6.05;;;;;;;22.77;44.94;99895.80;1643886;86;21163;-69
2022/06/12 05:09:07;;;;;;;7.78;5.75;;;;;;;22.88;45.24;99894.88;1648713;86;21419;-69
2022/06/12 05:11:35;;;;;;;10.45;6.25;;;;;;;22.96;45.08;99902.17;1667307;86;21001;-70
2022/06/12 05:14:01;;;;;;;9.70;6.00;;;;;;;23.03;44.50;99895.42;1642746;86;21112;-69
2022/06/12 05:16:35;;;;;;;9.10;6.05;;;;;;;23.11;44.45;99896.52;1629097;86;21001;-71
2022/06/12 05:19:05;;;;;;;8.48;5.78;;;;;;;23.18;44.16;99895.98;1607514;88;21067;-70
2022/06/12 05:21:32;;;;;;;8.33;6.22;;;;;;;23.24;44.13;99898.31;1630442;88;21470;-71
2022/06/12 05:23:59;;;;;;;10.32;5.75;;;;;;;23.30;43.68;99898.81;1646548;86;21601;-70
2022/06/12 05:26:26;;;;;;;9.13;6.03;;;;;;;23.34;43.00;99895.45;1652778;86;21018;-68
2022/06/12 05:28:53;;;;;;;8.63;5.92;;;;;;;23.39;42.82;99895.64;1624976;86;20981;-68
2022/06/12 05:31:20;;;;;;;9.45;6.20;;;;;;;23.48;42.77;99888.65;1621529;86;20992;-70
2022/06/12 05:33:46;;;;;;;10.65;6.05;;;;;;;23.54;42.22;99889.93;1620314;88;20949;-69
2022/06/12 05:36:14;;;;;;;10.05;5.50;;;;;;;23.62;41.29;99892.40;1631507;86;22011;-69
2022/06/12 05:38:42;;;;;;;8.93;5.50;;;;;;;23.72;41.25;99893.26;1623823;86;21638;-68
2022/06/12 05:41:09;;;;;;;10.88;5.50;;;;;;;23.85;41.34;99897.22;1581181;89;21515;-69
2022/06/12 05:43:37;;;;;;;8.40;5.47;;;;;;;23.95;40.63;99893.50;1588877;89;21073;-72
2022/06/12 05:46:03;;;;;;;8.55;5.22;;;;;;;24.04;40.38;99893.23;1633599;86;21411;-69
2022/06/12 05:48:31;;;;;;;6.50;4.80;;;;;;;24.15;40.17;99895.20;1630936;87;23523;-69
2022/06/12 05:50:59;;;;;;;9.28;5.30;;;;;;;24.30;40.24;99897.00;1625278;87;21089;-71
2022/06/12 05:53:27;;;;;;;7.55;4.90;;;;;;;24.43;39.80;99892.88;1638506;86;21143;-69
2022/06/12 05:55:54;;;;;;;8.90;4.80;;;;;;;24.56;39.46;99897.30;1662376;84;21067;-69
2022/06/12 05:58:22;;;;;;;10.98;4.90;;;;;;;24.64;39.38;99890.78;1655930;84;21121;-70
2022/06/12 06:00:49;;;;;;;8.40;5.20;;;;;;;24.73;39.25;99892.13;1660135;85;21956;-70
2022/06/12 06:03:16;;;;;;;9.53;4.80;;;;;;;24.79;39.85;99890.67;1649127;86;21492;-70
2022/06/12 06:05:44;;;;;;;9.28;4.83;;;;;;;24.87;39.92;99883.33;1659382;84;21036;-77
2022/06/12 06:08:10;;;;;;;6.50;4.55;;;;;;;24.96;38.98;99892.77;1654291;86;21408;-70
2022/06/12 06:10:38;;;;;;;6.30;4.30;;;;;;;25.04;38.35;99883.86;1653306;84;20973;-70
2022/06/12 06:13:05;;;;;;;7.28;4.60;;;;;;;25.14;38.35;99886.02;1661233;84;21827;-70
2022/06/12 06:15:31;;;;;;;9.55;4.40;;;;;;;25.26;38.16;99881.47;1645920;86;20962;-71
2022/06/12 06:17:59;;;;;;;6.00;4.28;;;;;;;25.38;37.95;99882.36;1657756;86;21020;-70
2022/06/12 06:20:30;;;;;;;5.85;4.35;;;;;;;25.52;37.54;99880.27;1655693;86;21484;-72
2022/06/12 06:22:58;;;;;;;7.83;4.45;;;;;;;25.66;37.81;99878.99;1657281;84;21071;-72
2022/06/12 06:25:25;;;;;;;10.53;4.80;;;;;;;25.82;38.10;99869.95;1642599;84;21850;-70
2022/06/12 06:27:52;;;;;;;12.65;4.72;;;;;;;25.98;38.35;99869.27;1655882;85;21446;-70
2022/06/12 06:30:20;;;;;;;6.00;4.50;;;;;;;26.15;37.23;99870.21;1649295;86;21093;-70
2022/06/12 06:32:47;;;;;;;6.80;4.00;;;;;;;26.28;35.90;99864.25;1647043;86;21073;-71
2022/06/12 06:35:14;;;;;;;7.90;4.35;;;;;;;26.39;35.27;99876.98;1641597;86;21123;-71
2022/06/12 06:37:42;;;;;;;5.58;4.30;;;;;;;26.46;34.73;99868.20;1661020;84;21859;-71
2022/06/12 06:40:11;;;;;;;8.25;4.15;;;;;;;26.52;34.88;99865.88;1656612;86;21025;-70
2022/06/12 06:42:38;;;;;;;7.97;3.60;;;;;;;26.57;34.45;99866.01;1664762;84;21487;-72
2022/06/12 06:47:52;;;;;;;5.40;3.60;;;;;;;26.80;34.17;99867.82;1658301;84;21570;-71
2022/06/12 06:50:20;;;;;;;4.95;3.67;;;;;;;26.95;33.36;99863.25;1662224;86;21702;-70
2022/06/12 06:52:48;;;;;;;9.35;3.83;;;;;;;27.05;33.58;99870.25;1653175;86;20905;-72
2022/06/12 06:55:14;;;;;;;7.97;4.10;;;;;;;27.10;33.89;99865.73;1656713;86;21036;-71
2022/06/12 06:57:44;;;;;;;8.20;4.05;;;;;;;27.14;34.23;99872.05;1658094;86;21554;-71
2022/06/12 07:00:17;;;;;;;10.68;3.85;;;;;;;27.20;34.45;99869.17;1656619;84;21114;-71
2022/06/12 07:02:43;;;;;;;5.72;3.42;;;;;;;27.29;33.98;99867.71;1654175;84;21913;-70
2022/06/12 07:05:10;;;;;;;5.33;3.60;;;;;;;27.34;33.79;99875.95;1661791;86;21079;-74
2022/06/12 07:07:37;;;;;;;7.50;4.00;;;;;;;27.34;33.55;99868.35;1652958;84;21056;-71
2022/06/12 07:10:05;;;;;;;5.55;3.90;;;;;;;27.39;33.73;99867.07;1662358;84;21013;-70
2022/06/12 07:12:32;;;;;;;5.17;3.52;;;;;;;27.48;32.68;99871.56;1658791;84;21057;-71
2022/06/12 07:14:59;;;;;;;15.90;3.62;;;;;;;27.54;32.00;99866.53;1655733;84;22593;-72
2022/06/12 07:17:25;;;;;;;7.55;3.72;;;;;;;27.62;31.97;99862.88;1655969;86;21025;-70
2022/06/12 07:19:52;;;;;;;7.58;3.35;;;;;;;27.75;32.57;99863.65;1662811;86;21052;-70
2022/06/12 07:22:18;;;;;;;10.15;3.33;;;;;;;27.90;33.44;99866.62;1652686;84;21116;-70
2022/06/12 07:24:46;;;;;;;8.60;3.60;;;;;;;28.10;32.72;99872.89;1657087;86;21108;-70
2022/06/12 07:27:12;;;;;;;9.80;3.50;;;;;;;28.20;32.04;99864.35;1647343;86;21863;-70
2022/06/12 07:29:39;;;;;;;6.12;2.77;;;;;;;28.25;31.64;99867.66;1654312;86;21068;-73
2022/06/12 07:32:08;;;;;;;6.05;3.08;;;;;;;28.28;31.12;99867.69;1659035;86;21076;-70
2022/06/12 07:34:34;;;;;;;9.98;2.90;;;;;;;28.33;31.62;99867.27;1657562;86;20953;-70
2022/06/12 07:37:02;;;;;;;6.80;2.92;;;;;;;28.41;31.07;99871.45;1646812;84;21030;-70
2022/06/12 07:39:30;;;;;;;5.40;3.10;;;;;;;28.48;31.50;99868.03;1658009;86;22249;-72
2022/06/12 07:41:57;;;;;;;6.40;3.60;;;;;;;28.62;31.97;99871.19;1655368;84;21096;-70
2022/06/12 07:44:28;;;;;;;5.92;3.50;;;;;;;28.78;31.96;99868.41;1658853;86;21083;-70
2022/06/12 07:46:57;;;;;;;5.87;3.50;;;;;;;28.80;32.30;99866.25;1656788;86;21084;-70
2022/06/12 07:49:25;;;;;;;6.15;3.58;;;;;;;28.77;32.65;99861.33;1661407;86;21043;-71
2022/06/12 07:51:54;;;;;;;9.08;3.42;;;;;;;28.81;33.26;99864.35;1660200;84;21987;-71
2022/06/12 07:54:20;;;;;;;4.80;3.27;;;;;;;28.96;33.01;99866.47;1659884;84;21071;-74
2022/06/12 07:56:47;;;;;;;5.37;3.17;;;;;;;29.02;33.01;99865.44;1652694;84;21166;-70
2022/06/12 07:59:15;;;;;;;5.33;3.30;;;;;;;29.17;33.68;99864.80;1654942;84;21081;-70
2022/06/12 08:01:42;;;;;;;7.08;3.20;;;;;;;29.30;33.04;99865.73;1647988;86;21095;-70
2022/06/12 08:04:09;;;;;;;6.50;3.35;;;;;;;29.35;32.76;99855.73;1659250;84;22457;-71
2022/06/12 08:06:36;;;;;;;6.22;2.70;;;;;;;29.39;32.69;99860.65;1648508;86;21029;-70
2022/06/12 08:09:07;;;;;;;3.87;2.55;;;;;;;29.45;32.46;99856.91;1664276;84;21644;-71
2022/06/12 08:11:35;;;;;;;5.58;2.87;;;;;;;29.48;32.41;99861.31;1658524;86;21020;-70
2022/06/12 08:14:02;;;;;;;7.80;2.83;;;;;;;29.55;32.56;99859.20;1657967;84;21021;-70
2022/06/12 08:16:29;;;;;;;3.92;2.65;;;;;;;29.79;32.27;99854.22;1646181;86;21562;-70
2022/06/12 08:18:56;;;;;;;4.37;2.72;;;;;;;29.79;32.27;99854.22;1654576;86;21076;-70
2022/06/12 08:21:24;;;;;;;6.60;2.90;;;;;;;29.87;32.50;99852.91;1651876;86;21517;-70
2022/06/12 08:23:57;;;;;;;4.80;2.83;;;;;;;29.98;32.38;99849.72;1616762;85;21440;-70
2022/06/12 08:26:30;;;;;;;5.92;2.60;;;;;;;30.07;32.43;99849.55;1655816;86;20965;-70
2022/06/12 08:29:06;;;;;;;6.22;2.58;;;;;;;30.17;32.34;99853.69;1631284;86;21910;-71
2022/06/12 08:31:41;;;;;;;4.42;3.00;;;;;;;30.30;32.21;99849.12;1658223;84;20981;-70
2022/06/12 08:34:13;;;;;;;4.25;2.70;;;;;;;30.57;31.44;99848.17;1663939;84;21016;-70
2022/06/12 08:36:40;;;;;;;3.60;2.30;;;;;;;30.57;31.44;99848.17;1649666;86;21029;-71
2022/06/12 08:39:08;;;;;;;4.85;2.87;;;;;;;30.76;31.40;99848.82;1664831;86;21518;-70
2022/06/12 08:41:50;;;;;;;5.45;2.70;;;;;;;30.88;30.62;99847.21;1682349;84;21851;-72
2022/06/12 08:44:47;;;;;;;4.28;2.50;;;;;;;31.00;30.22;99852.45;1655749;84;21108;-71
2022/06/12 08:47:25;;;;;;;6.92;2.72;;;;;;;31.12;29.67;99845.38;1667122;84;21531;-72
2022/06/12 08:50:13;;;;;;;2.80;2.10;;;;;;;31.34;29.05;99848.70;1657483;86;21121;-79
2022/06/12 08:52:54;;;;;;;3.83;1.92;;;;;;;31.54;27.27;99843.80;1645310;86;20969;-71
2022/06/12 08:56:11;;;;;;;5.67;2.20;;;;;;;31.77;27.14;99843.30;1684650;84;21865;-71
2022/06/12 08:58:46;;;;;;;5.80;2.05;;;;;;;31.96;25.96;99835.91;1622048;86;21017;-74
2022/06/12 09:01:13;;;;;;;3.95;2.20;;;;;;;32.09;25.73;99840.79;1655817;84;21096;-74
2022/06/12 09:03:49;;;;;;;3.47;2.15;;;;;;;32.09;25.61;99838.05;1684742;85;21334;-73
2022/06/12 09:06:39;;;;;;;6.35;2.17;;;;;;;32.14;25.07;99839.42;1659366;85;21052;-73
2022/06/12 09:09:26;;;;;;;5.67;2.37;;;;;;;32.17;24.85;99838.31;1648120;86;22495;-75
2022/06/12 09:12:19;;;;;;;4.03;2.30;;;;;;;32.16;24.17;99844.88;1652677;85;21099;-79
2022/06/12 09:15:01;;;;;;;;;;;;;;;32.11;24.45;99831.77;1641799;85;21435;-72
2022/06/12 09:18:04;;;;;;;7.45;2.10;;;;;;;32.09;24.46;99827.95;1650195;86;20193;-73
2022/06/12 09:20:38;;;;;;;4.78;2.12;;;;;;;32.23;25.04;99825.44;1654430;84;21109;-76
2022/06/12 09:23:32;;;;;;;5.50;2.20;;;;;;;32.53;24.66;99827.30;1647631;86;22554;-74
2022/06/12 09:26:37;;;;;;;5.92;2.10;;;;;;;32.71;23.56;99831.29;1646432;86;21068;-73
2022/06/12 09:29:39;;;;;;;3.87;1.90;;;;;;;32.70;22.31;99827.74;1632975;86;21670;-72
2022/06/12 09:32:14;;;;;;;5.12;2.00;;;;;;;32.66;22.98;99832.70;1653051;86;21414;-74
2022/06/12 09:35:06;;;;;;;3.02;1.95;;;;;;;32.74;22.87;99831.57;1656765;86;21105;-73
2022/06/12 09:40:37;;;;;;;2.62;2.00;;;;;;;32.97;22.25;99826.55;1644232;85;20996;-74
2022/06/12 09:43:15;;;;;;;2.98;2.00;;;;;;;33.05;22.67;99827.31;1657890;84;21549;-73
2022/06/12 09:46:19;;;;;;;3.27;2.00;;;;;;;33.10;21.97;99819.61;1655062;84;21064;-72
2022/06/12 09:49:20;;;;;;;3.55;2.00;;;;;;;33.18;21.67;99828.03;1722860;81;21502;-76
2022/06/12 09:52:09;;;;;;;4.92;2.20;;;;;;;33.25;21.02;99816.23;1724253;81;22287;-74
2022/06/12 09:54:59;;;;;;;10.38;2.10;;;;;;;33.16;21.07;99811.64;1705295;81;21105;-71
2022/06/12 09:57:49;;;;;;;3.40;2.30;;;;;;;33.16;21.15;99814.38;1724187;82;21183;-72
2022/06/12 10:00:23;;;;;;;2.95;2.05;;;;;;;33.17;21.20;99802.33;1721085;81;21053;-71
2022/06/12 10:03:19;;;;;;;3.30;1.90;;;;;;;33.35;21.39;99800.27;1718917;81;21014;-73
2022/06/12 10:05:58;;;;;;;4.90;2.08;;;;;;;33.57;21.20;99797.09;1715893;82;21846;-73
2022/06/12 10:08:37;;;;;;;5.45;2.25;;;;;;;33.68;20.65;99796.45;1732876;81;21499;-76
2022/06/12 10:11:18;;;;;;;2.87;1.90;;;;;;;33.86;21.45;99798.45;1729112;81;21075;-71
2022/06/12 10:13:54;;;;;;;6.20;2.12;;;;;;;34.09;20.92;99790.86;1718822;81;21090;-74
2022/06/12 10:16:33;;;;;;;2.42;1.90;;;;;;;34.24;20.63;99801.37;1728876;81;21058;-73
2022/06/12 10:19:12;;;;;;;4.22;2.00;;;;;;;34.32;20.17;99790.58;1728682;81;21843;-72
2022/06/12 10:21:41;;;;;;;3.33;2.25;;;;;;;34.35;20.31;99785.05;1721864;81;21014;-70
2022/06/12 10:24:10;;;;;;;4.35;2.30;;;;;;;34.49;20.77;99781.90;1724537;81;21104;-72
2022/06/12 10:26:37;;;;;;;2.85;2.10;;;;;;;34.66;20.52;99778.11;1726856;81;21164;-72
2022/06/12 10:29:09;;;;;;;3.65;2.20;;;;;;;34.84;21.32;99779.23;1716942;81;21072;-72
2022/06/12 10:31:50;;;;;;;5.55;2.10;;;;;;;35.03;20.66;99772.91;1729666;81;21826;-71
2022/06/12 10:34:23;;;;;;;2.77;2.15;;;;;;;35.19;20.08;99783.36;1722874;81;21130;-71
2022/06/12 10:36:50;;;;;;;4.83;2.30;;;;;;;35.29;20.62;99774.95;1739737;81;21572;-72
2022/06/12 10:39:20;;;;;;;4.42;2.40;;;;;;;35.45;20.19;99765.94;1723194;82;21067;-74
2022/06/12 10:42:02;;;;;;;3.35;2.30;;;;;;;35.47;19.66;99768.38;1726697;81;21052;-73
2022/06/12 10:44:42;;;;;;;3.75;2.47;;;;;;;35.35;20.37;99769.39;1712985;81;22025;-73
2022/06/12 10:47:31;;;;;;;4.45;2.47;;;;;;;35.38;20.13;99767.41;1713335;81;21020;-74
2022/06/12 10:50:23;;;;;;;3.67;2.33;;;;;;;35.52;20.28;99763.63;1715376;82;21002;-73
2022/06/12 10:53:03;;;;;;;8.90;3.15;;;;;;;35.60;19.91;99763.47;1711765;83;21042;-73
2022/06/12 10:55:53;;;;;;;4.62;2.30;;;;;;;35.68;19.95;99768.83;1717579;82;21700;-73
2022/06/12 10:58:58;;;;;;;3.90;2.77;;;;;;;35.81;19.25;99757.87;1704523;81;21849;-72
2022/06/12 11:01:39;;;;;;;4.62;2.50;;;;;;;35.80;19.60;99760.90;1685884;85;21052;-72
2022/06/12 11:04:33;;;;;;;6.10;2.90;;;;;;;35.94;19.81;99763.14;1694505;83;21108;-73
2022/06/12 11:07:11;;;;;;;4.92;3.05;;;;;;;36.16;18.99;99763.80;1661003;86;21075;-72
2022/06/12 11:10:07;;;;;;;5.50;2.95;;;;;;;36.28;18.82;99761.34;1668177;84;21058;-72
2022/06/12 11:12:57;;;;;;;4.35;2.77;;;;;;;36.38;18.99;99765.84;1668115;86;21957;-72
2022/06/12 11:15:48;;;;;;;3.15;2.40;;;;;;;36.34;19.08;99763.42;1680932;84;21004;-71
2022/06/12 11:18:44;;;;;;;6.08;2.67;;;;;;;36.27;19.19;99754.77;1668257;84;21055;-74
2022/06/12 11:21:31;;;;;;;3.20;2.60;;;;;;;36.40;19.53;99760.30;1673486;83;21094;-76
2022/06/12 11:24:17;;;;;;;3.85;2.80;;;;;;;36.57;18.85;99747.26;1654243;86;21062;-73
2022/06/12 11:27:11;;;;;;;4.55;2.87;;;;;;;36.58;19.13;99749.47;1663454;83;22555;-72
2022/06/12 11:29:58;;;;;;;5.72;2.72;;;;;;;36.71;19.33;99741.73;1656051;85;20928;-73
2022/06/12 11:32:46;;;;;;;6.20;2.70;;;;;;;36.84;18.49;99741.45;1668977;84;21044;-75
2022/06/12 11:35:39;;;;;;;3.90;2.60;;;;;;;36.89;17.94;99739.97;1701048;83;21047;-72
2022/06/12 11:38:17;;;;;;;6.28;2.77;;;;;;;36.83;18.63;99733.77;1727916;82;27402;-74
2022/06/12 11:41:12;;;;;;;3.20;2.87;;;;;;;36.98;17.87;99723.52;1690736;84;21836;-74
2022/06/12 11:44:03;;;;;;;6.70;2.92;;;;;;;37.08;18.02;99722.70;1691395;84;20927;-75
2022/06/12 11:46:47;;;;;;;5.50;2.70;;;;;;;37.03;17.27;99716.50;1669088;85;21539;-74
2022/06/12 11:49:35;;;;;;;5.65;2.92;;;;;;;36.74;17.21;99717.71;1656911;83;21081;-73
2022/06/12 11:52:30;;;;;;;3.95;2.40;;;;;;;36.59;18.21;99707.08;1692642;84;21122;-73
2022/06/12 11:55:20;;;;;;;5.12;2.60;;;;;;;36.77;17.45;99719.86;1667493;84;21927;-74
2022/06/12 11:58:13;;;;;;;6.15;2.83;;;;;;;36.72;17.50;99710.90;1693532;84;21479;-72
2022/06/12 12:01:24;;;;;;;4.67;2.67;;;;;;;36.78;18.29;99706.91;1659520;85;21446;-71
2022/06/12 12:04:12;;;;;;;4.40;2.65;;;;;;;36.94;17.34;99699.36;1698240;84;21067;-69
2022/06/12 12:07:03;;;;;;;3.70;2.70;;;;;;;36.98;17.55;99700.12;1634987;85;21081;-71
2022/06/12 12:10:08;;;;;;;7.58;2.62;;;;;;;37.16;17.16;99695.80;1640746;85;21947;-72
2022/06/12 12:12:40;;;;;;;3.90;2.55;;;;;;;37.25;17.14;99693.06;1629332;87;21082;-71
2022/06/12 12:15:25;;;;;;;4.20;2.47;;;;;;;37.38;17.05;99689.45;1639429;87;21123;-70
2022/06/12 12:17:52;;;;;;;5.05;2.90;;;;;;;37.52;17.15;99679.14;1668713;85;20983;-70
2022/06/12 12:20:37;;;;;;;13.03;3.90;;;;;;;37.63;17.98;99686.55;1669216;86;21059;-69
2022/06/12 12:23:22;;;;;;;5.20;3.80;;;;;;;37.65;19.47;99679.38;1670020;84;21912;-69
2022/06/12 12:26:02;;;;;;;7.85;4.20;;;;;;;37.51;20.08;99678.89;1669914;86;21518;-70
2022/06/12 12:28:51;;;;;;;7.60;4.25;;;;;;;37.40;20.68;99680.30;1647508;86;21069;-70